BER8537 LEMD-EDDB
Flight info
| Callsign | BER8537 |
|---|---|
| Flight time | 2h 39m |
| Altitude | 36000 |
| Route | RBO N867 DGO L176 LUSEM DCT LULUT DCT ADABI DCT BOKNO DCT DIBES DCT VIQAQ DCT TSU UN858 OQQAL DCT RANUX/N0453F370 DCT VALEK DCT LIPNI UN858 LIMGO DCT MASEK T278 KLF KLF1R |
| Aircraft | A320/M-SDE3FGHIRWY/LB1 |
Departure
| Time | 2026-05-07 13:16 |
|---|---|
| Airport | Adolfo Suárez Madrid–Barajas Airport (LEMD) |
Arrival
| Time | 2026-05-07 15:55 |
|---|---|
| Airport | Berlin Brandenburg Airport (EDDB) |
| Time | Latitude | Longitude | Altitude | Speed | Heading |
|---|---|---|---|---|---|
| 2026-05-07 12:36 | 40.49055 | -3.58730 | 2022 ft | 0 kts | 271° |
| 2026-05-07 13:02 | 40.49055 | -3.58714 | 2037 ft | 4 kts | 272° |
| 2026-05-07 13:02 | 40.49052 | -3.58679 | 2030 ft | 4 kts | 281° |
| 2026-05-07 13:03 | 40.49045 | -3.58646 | 2027 ft | 4 kts | 307° |
| 2026-05-07 13:03 | 40.49030 | -3.58632 | 2033 ft | 1 kts | 360° |
| 2026-05-07 13:03 | 40.49029 | -3.58632 | 2033 ft | 0 kts | 360° |
| 2026-05-07 13:09 | 40.49040 | -3.58632 | 2030 ft | 6 kts | 360° |
| 2026-05-07 13:10 | 40.49104 | -3.58632 | 2022 ft | 13 kts | 359° |
| 2026-05-07 13:10 | 40.49214 | -3.58625 | 2030 ft | 17 kts | 28° |
| 2026-05-07 13:10 | 40.49242 | -3.58477 | 2014 ft | 20 kts | 89° |
| 2026-05-07 13:10 | 40.49242 | -3.58277 | 2007 ft | 24 kts | 90° |
| 2026-05-07 13:11 | 40.49226 | -3.58042 | 2000 ft | 26 kts | 127° |
| 2026-05-07 13:11 | 40.49078 | -3.58054 | 2001 ft | 22 kts | 175° |
| 2026-05-07 13:11 | 40.48917 | -3.58050 | 2003 ft | 24 kts | 180° |
| 2026-05-07 13:11 | 40.48747 | -3.58047 | 2003 ft | 25 kts | 179° |
| 2026-05-07 13:12 | 40.48571 | -3.58039 | 2003 ft | 25 kts | 159° |
| 2026-05-07 13:12 | 40.48489 | -3.57836 | 1992 ft | 21 kts | 114° |
| 2026-05-07 13:12 | 40.48486 | -3.57771 | 1993 ft | 0 kts | 95° |
| 2026-05-07 13:13 | 40.48486 | -3.57764 | 1993 ft | 2 kts | 95° |
| 2026-05-07 13:13 | 40.48475 | -3.57709 | 1993 ft | 11 kts | 109° |
| 2026-05-07 13:14 | 40.48443 | -3.57584 | 1995 ft | 15 kts | 103° |
| 2026-05-07 13:14 | 40.48401 | -3.57509 | 1997 ft | 0 kts | 141° |
| 2026-05-07 13:15 | 40.48355 | -3.57462 | 1999 ft | 28 kts | 142° |
| 2026-05-07 13:15 | 40.47995 | -3.57100 | 2003 ft | 99 kts | 142° |
| 2026-05-07 13:16 | 40.47287 | -3.56395 | 1986 ft | 154 kts | 142° |
| 2026-05-07 13:16 | 40.46349 | -3.55407 | 1984 ft | 192 kts | 140° |
| 2026-05-07 13:16 | 40.45452 | -3.54178 | 2786 ft | 186 kts | 124° |
| 2026-05-07 13:16 | 40.44643 | -3.52762 | 3252 ft | 203 kts | 128° |
| 2026-05-07 13:17 | 40.43689 | -3.51304 | 3735 ft | 217 kts | 134° |
| 2026-05-07 13:17 | 40.42547 | -3.49919 | 4217 ft | 231 kts | 138° |
| 2026-05-07 13:17 | 40.41313 | -3.48497 | 4841 ft | 240 kts | 140° |
| 2026-05-07 13:17 | 40.40066 | -3.47098 | 5909 ft | 228 kts | 140° |
| 2026-05-07 13:18 | 40.38894 | -3.45735 | 6806 ft | 226 kts | 139° |
| 2026-05-07 13:18 | 40.37731 | -3.44329 | 7522 ft | 229 kts | 139° |
| 2026-05-07 13:18 | 40.36561 | -3.42896 | 8277 ft | 232 kts | 141° |
| 2026-05-07 13:18 | 40.35201 | -3.41719 | 8831 ft | 244 kts | 153° |
| 2026-05-07 13:19 | 40.33652 | -3.40598 | 9262 ft | 262 kts | 153° |
| 2026-05-07 13:19 | 40.32142 | -3.39198 | 9928 ft | 272 kts | 137° |
| 2026-05-07 13:19 | 40.31022 | -3.37163 | 10625 ft | 281 kts | 117° |
| 2026-05-07 13:19 | 40.30482 | -3.34680 | 11347 ft | 289 kts | 97° |
| 2026-05-07 13:20 | 40.30476 | -3.32026 | 12097 ft | 293 kts | 91° |
| 2026-05-07 13:20 | 40.30554 | -3.29342 | 12840 ft | 298 kts | 85° |
| 2026-05-07 13:20 | 40.31058 | -3.26683 | 13569 ft | 305 kts | 69° |
| 2026-05-07 13:20 | 40.32086 | -3.24235 | 14233 ft | 310 kts | 54° |
| 2026-05-07 13:21 | 40.33474 | -3.22048 | 14878 ft | 314 kts | 51° |
| 2026-05-07 13:21 | 40.34886 | -3.19853 | 15542 ft | 317 kts | 51° |
| 2026-05-07 13:21 | 40.36320 | -3.17611 | 16198 ft | 320 kts | 51° |
| 2026-05-07 13:21 | 40.37782 | -3.15424 | 16834 ft | 324 kts | 44° |
| 2026-05-07 13:22 | 40.39617 | -3.13692 | 17458 ft | 327 kts | 26° |
| 2026-05-07 13:22 | 40.41765 | -3.12702 | 18092 ft | 330 kts | 9° |
| 2026-05-07 13:22 | 40.44022 | -3.12542 | 18650 ft | 330 kts | 353° |
| 2026-05-07 13:22 | 40.46282 | -3.13107 | 19202 ft | 332 kts | 345° |
| 2026-05-07 13:23 | 40.48543 | -3.13780 | 19761 ft | 335 kts | 345° |
| 2026-05-07 13:23 | 40.50827 | -3.14458 | 20314 ft | 338 kts | 346° |
| 2026-05-07 13:23 | 40.53128 | -3.15138 | 20864 ft | 341 kts | 346° |
| 2026-05-07 13:23 | 40.55451 | -3.15819 | 21398 ft | 343 kts | 346° |
| 2026-05-07 13:24 | 40.57802 | -3.16506 | 21802 ft | 352 kts | 346° |
| 2026-05-07 13:24 | 40.60242 | -3.17222 | 21938 ft | 367 kts | 346° |
| 2026-05-07 13:24 | 40.62781 | -3.17976 | 22076 ft | 381 kts | 346° |
| 2026-05-07 13:24 | 40.65419 | -3.18760 | 22215 ft | 395 kts | 346° |
| 2026-05-07 13:25 | 40.68141 | -3.19564 | 22353 ft | 408 kts | 346° |
| 2026-05-07 13:25 | 40.70955 | -3.20392 | 22492 ft | 420 kts | 346° |
| 2026-05-07 13:25 | 40.73845 | -3.21242 | 22631 ft | 431 kts | 346° |
| 2026-05-07 13:25 | 40.76805 | -3.22116 | 22802 ft | 440 kts | 346° |
| 2026-05-07 13:26 | 40.79812 | -3.23008 | 23134 ft | 445 kts | 346° |
| 2026-05-07 13:26 | 40.82842 | -3.23909 | 23551 ft | 448 kts | 346° |
| 2026-05-07 13:26 | 40.85897 | -3.24783 | 23889 ft | 451 kts | 349° |
| 2026-05-07 13:26 | 40.89043 | -3.24901 | 24206 ft | 456 kts | 7° |
| 2026-05-07 13:27 | 40.92123 | -3.23843 | 24516 ft | 460 kts | 19° |
| 2026-05-07 13:27 | 40.95203 | -3.22685 | 24850 ft | 462 kts | 11° |
| 2026-05-07 13:27 | 40.98323 | -3.21867 | 25192 ft | 464 kts | 11° |
| 2026-05-07 13:27 | 41.01502 | -3.21060 | 25532 ft | 467 kts | 10° |
| 2026-05-07 13:28 | 41.04705 | -3.20291 | 25864 ft | 469 kts | 9° |
| 2026-05-07 13:28 | 41.07923 | -3.19557 | 26188 ft | 471 kts | 9° |
| 2026-05-07 13:28 | 41.11166 | -3.18840 | 26505 ft | 473 kts | 9° |
| 2026-05-07 13:28 | 41.14424 | -3.18127 | 26805 ft | 475 kts | 9° |
| 2026-05-07 13:29 | 41.17695 | -3.17408 | 27119 ft | 477 kts | 9° |
| 2026-05-07 13:29 | 41.20978 | -3.16680 | 27419 ft | 479 kts | 9° |
| 2026-05-07 13:29 | 41.24271 | -3.15945 | 27711 ft | 481 kts | 9° |
| 2026-05-07 13:29 | 41.27583 | -3.15202 | 28031 ft | 483 kts | 9° |
| 2026-05-07 13:30 | 41.30892 | -3.14454 | 28457 ft | 482 kts | 9° |
| 2026-05-07 13:30 | 41.34194 | -3.13699 | 28858 ft | 482 kts | 9° |
| 2026-05-07 13:30 | 41.37495 | -3.12940 | 29260 ft | 481 kts | 9° |
| 2026-05-07 13:30 | 41.40791 | -3.12186 | 29674 ft | 480 kts | 9° |
| 2026-05-07 13:31 | 41.44087 | -3.11437 | 30076 ft | 480 kts | 9° |
| 2026-05-07 13:31 | 41.47370 | -3.10693 | 30427 ft | 479 kts | 9° |
| 2026-05-07 13:31 | 41.50653 | -3.09950 | 30778 ft | 478 kts | 9° |
| 2026-05-07 13:31 | 41.53883 | -3.09218 | 31138 ft | 477 kts | 9° |
| 2026-05-07 13:32 | 41.57154 | -3.08476 | 31483 ft | 476 kts | 9° |
| 2026-05-07 13:32 | 41.60416 | -3.07741 | 31831 ft | 475 kts | 9° |
| 2026-05-07 13:32 | 41.63675 | -3.07005 | 32186 ft | 475 kts | 9° |
| 2026-05-07 13:32 | 41.66932 | -3.06264 | 32522 ft | 474 kts | 8° |
| 2026-05-07 13:33 | 41.70181 | -3.05522 | 32864 ft | 473 kts | 8° |
| 2026-05-07 13:33 | 41.73425 | -3.04780 | 33154 ft | 474 kts | 8° |
| 2026-05-07 13:33 | 41.76681 | -3.04035 | 33439 ft | 475 kts | 8° |
| 2026-05-07 13:33 | 41.79936 | -3.03289 | 33758 ft | 475 kts | 8° |
| 2026-05-07 13:34 | 41.83190 | -3.02538 | 34063 ft | 474 kts | 8° |
| 2026-05-07 13:34 | 41.89684 | -3.01038 | 34618 ft | 473 kts | 8° |
| 2026-05-07 13:34 | 41.92932 | -3.00287 | 34905 ft | 473 kts | 8° |
| 2026-05-07 13:35 | 41.96180 | -2.99535 | 35164 ft | 473 kts | 8° |
| 2026-05-07 13:35 | 41.99429 | -2.98781 | 35368 ft | 475 kts | 8° |
| 2026-05-07 13:35 | 42.02684 | -2.98025 | 35606 ft | 475 kts | 8° |
| 2026-05-07 13:35 | 42.05942 | -2.97269 | 35836 ft | 475 kts | 8° |
| 2026-05-07 13:36 | 42.09159 | -2.96520 | 35925 ft | 477 kts | 8° |
| 2026-05-07 13:36 | 42.15711 | -2.94995 | 35922 ft | 478 kts | 8° |
| 2026-05-07 13:37 | 42.22271 | -2.93464 | 35926 ft | 479 kts | 8° |
| 2026-05-07 13:37 | 42.28841 | -2.91929 | 35921 ft | 479 kts | 8° |
| 2026-05-07 13:38 | 42.35408 | -2.90394 | 35918 ft | 479 kts | 8° |
| 2026-05-07 13:38 | 42.41944 | -2.88617 | 35932 ft | 481 kts | 17° |
| 2026-05-07 13:39 | 42.47939 | -2.84640 | 35914 ft | 482 kts | 36° |
| 2026-05-07 13:39 | 42.53043 | -2.78780 | 35915 ft | 481 kts | 42° |
| 2026-05-07 13:40 | 42.58056 | -2.72747 | 35922 ft | 482 kts | 42° |
| 2026-05-07 13:40 | 42.63040 | -2.66745 | 35921 ft | 482 kts | 42° |
| 2026-05-07 13:41 | 42.68054 | -2.60677 | 35907 ft | 483 kts | 42° |
| 2026-05-07 13:41 | 42.73065 | -2.54577 | 35909 ft | 484 kts | 42° |
| 2026-05-07 13:42 | 42.78086 | -2.48469 | 35910 ft | 484 kts | 42° |
| 2026-05-07 13:42 | 42.83108 | -2.42352 | 35919 ft | 484 kts | 42° |
| 2026-05-07 13:43 | 42.88126 | -2.36223 | 35918 ft | 485 kts | 43° |
| 2026-05-07 13:43 | 42.93140 | -2.30076 | 35918 ft | 485 kts | 43° |
| 2026-05-07 13:44 | 42.98150 | -2.23915 | 35904 ft | 485 kts | 43° |
| 2026-05-07 13:44 | 43.03162 | -2.17751 | 35926 ft | 485 kts | 43° |
| 2026-05-07 13:45 | 43.08165 | -2.11570 | 35930 ft | 484 kts | 43° |
| 2026-05-07 13:45 | 43.13151 | -2.05379 | 35929 ft | 484 kts | 43° |
| 2026-05-07 13:46 | 43.18109 | -1.99229 | 35929 ft | 484 kts | 43° |
| 2026-05-07 13:46 | 43.23098 | -1.93040 | 35937 ft | 484 kts | 43° |
| 2026-05-07 13:47 | 43.28086 | -1.86845 | 35919 ft | 484 kts | 43° |
| 2026-05-07 13:47 | 43.33419 | -1.81233 | 35915 ft | 485 kts | 30° |
| 2026-05-07 13:48 | 43.39261 | -1.76599 | 35914 ft | 485 kts | 31° |
| 2026-05-07 13:48 | 43.44933 | -1.71572 | 35920 ft | 485 kts | 34° |
| 2026-05-07 13:49 | 43.50514 | -1.66344 | 35944 ft | 485 kts | 34° |
| 2026-05-07 13:49 | 43.56122 | -1.61164 | 35948 ft | 485 kts | 33° |
| 2026-05-07 13:50 | 43.61770 | -1.56054 | 35932 ft | 485 kts | 33° |
| 2026-05-07 13:50 | 43.67383 | -1.50988 | 35943 ft | 485 kts | 33° |
| 2026-05-07 13:51 | 43.73023 | -1.45855 | 35937 ft | 485 kts | 33° |
| 2026-05-07 13:51 | 43.78654 | -1.40697 | 35951 ft | 485 kts | 34° |
| 2026-05-07 13:52 | 43.84284 | -1.35529 | 35942 ft | 485 kts | 33° |
| 2026-05-07 13:52 | 43.89915 | -1.30368 | 35954 ft | 485 kts | 33° |
| 2026-05-07 13:53 | 43.95549 | -1.25201 | 35952 ft | 485 kts | 33° |
| 2026-05-07 13:53 | 44.01168 | -1.20016 | 35950 ft | 485 kts | 34° |
| 2026-05-07 13:54 | 44.06787 | -1.14803 | 35962 ft | 485 kts | 34° |
| 2026-05-07 13:54 | 44.12400 | -1.09594 | 35947 ft | 485 kts | 33° |
| 2026-05-07 13:55 | 44.17974 | -1.04422 | 35954 ft | 484 kts | 33° |
| 2026-05-07 13:55 | 44.23579 | -0.99215 | 35973 ft | 484 kts | 33° |
| 2026-05-07 13:56 | 44.29178 | -0.93983 | 35961 ft | 484 kts | 34° |
| 2026-05-07 13:56 | 44.34770 | -0.88744 | 35966 ft | 484 kts | 34° |
| 2026-05-07 13:57 | 44.40444 | -0.83681 | 35969 ft | 484 kts | 26° |
| 2026-05-07 13:57 | 44.46590 | -0.79886 | 35973 ft | 483 kts | 22° |
| 2026-05-07 13:58 | 44.52759 | -0.76136 | 35979 ft | 483 kts | 22° |
| 2026-05-07 13:58 | 44.58920 | -0.72360 | 35982 ft | 483 kts | 22° |
| 2026-05-07 13:59 | 44.64023 | -0.69215 | 35989 ft | 482 kts | 22° |
| 2026-05-07 13:59 | 44.71171 | -0.64821 | 35984 ft | 482 kts | 22° |
| 2026-05-07 14:00 | 44.77318 | -0.61049 | 35979 ft | 482 kts | 22° |
| 2026-05-07 14:00 | 44.83461 | -0.57261 | 35981 ft | 482 kts | 22° |
| 2026-05-07 14:01 | 44.88566 | -0.54094 | 35976 ft | 482 kts | 22° |
| 2026-05-07 14:01 | 44.94706 | -0.50287 | 35986 ft | 482 kts | 22° |
| 2026-05-07 14:02 | 45.00848 | -0.46482 | 35999 ft | 482 kts | 22° |
| 2026-05-07 14:02 | 45.06987 | -0.42664 | 35996 ft | 482 kts | 22° |
| 2026-05-07 14:03 | 45.13116 | -0.38827 | 35995 ft | 482 kts | 22° |
| 2026-05-07 14:03 | 45.19248 | -0.34975 | 35997 ft | 482 kts | 22° |
| 2026-05-07 14:04 | 45.25378 | -0.31130 | 35994 ft | 482 kts | 22° |
| 2026-05-07 14:04 | 45.31515 | -0.27289 | 35991 ft | 482 kts | 22° |
| 2026-05-07 14:05 | 45.37645 | -0.23437 | 35992 ft | 482 kts | 22° |
| 2026-05-07 14:05 | 45.43731 | -0.19592 | 36000 ft | 482 kts | 22° |
| 2026-05-07 14:06 | 45.49854 | -0.15713 | 35999 ft | 482 kts | 22° |
| 2026-05-07 14:06 | 45.55982 | -0.11827 | 35981 ft | 482 kts | 22° |
| 2026-05-07 14:07 | 45.62102 | -0.07929 | 35993 ft | 482 kts | 22° |
| 2026-05-07 14:07 | 45.68222 | -0.04021 | 35990 ft | 482 kts | 22° |
| 2026-05-07 14:08 | 45.74341 | -0.00110 | 35987 ft | 481 kts | 22° |
| 2026-05-07 14:08 | 45.80454 | 0.03800 | 36003 ft | 481 kts | 22° |
| 2026-05-07 14:09 | 45.86570 | 0.07724 | 36007 ft | 481 kts | 22° |
| 2026-05-07 14:09 | 45.92636 | 0.11630 | 36004 ft | 481 kts | 22° |
| 2026-05-07 14:10 | 45.98737 | 0.15574 | 36011 ft | 481 kts | 22° |
| 2026-05-07 14:10 | 46.04837 | 0.19525 | 36011 ft | 480 kts | 22° |
| 2026-05-07 14:11 | 46.10929 | 0.23470 | 36007 ft | 480 kts | 22° |
| 2026-05-07 14:11 | 46.17019 | 0.27426 | 36019 ft | 480 kts | 22° |
| 2026-05-07 14:12 | 46.23103 | 0.31389 | 36019 ft | 479 kts | 22° |
| 2026-05-07 14:12 | 46.29175 | 0.35350 | 36017 ft | 479 kts | 22° |
| 2026-05-07 14:13 | 46.35242 | 0.39336 | 36008 ft | 478 kts | 22° |
| 2026-05-07 14:13 | 46.41295 | 0.43325 | 36013 ft | 478 kts | 22° |
| 2026-05-07 14:14 | 46.47309 | 0.47276 | 36014 ft | 477 kts | 22° |
| 2026-05-07 14:14 | 46.53357 | 0.51257 | 36013 ft | 477 kts | 22° |
| 2026-05-07 14:15 | 46.59615 | 0.54246 | 36025 ft | 473 kts | 10° |
| 2026-05-07 14:15 | 46.66029 | 0.56345 | 36021 ft | 472 kts | 10° |
| 2026-05-07 14:16 | 46.72441 | 0.58456 | 36017 ft | 472 kts | 10° |
| 2026-05-07 14:16 | 46.78847 | 0.60577 | 36019 ft | 472 kts | 10° |
| 2026-05-07 14:17 | 46.85250 | 0.62701 | 36019 ft | 472 kts | 10° |
| 2026-05-07 14:17 | 46.91657 | 0.64822 | 36017 ft | 472 kts | 10° |
| 2026-05-07 14:18 | 46.98059 | 0.66951 | 36027 ft | 472 kts | 10° |
| 2026-05-07 14:18 | 47.04357 | 0.69427 | 36022 ft | 474 kts | 20° |
| 2026-05-07 14:19 | 47.10163 | 0.74040 | 36020 ft | 476 kts | 30° |
| 2026-05-07 14:19 | 47.15820 | 0.79088 | 36023 ft | 476 kts | 30° |
| 2026-05-07 14:20 | 47.21486 | 0.84129 | 36029 ft | 476 kts | 29° |
| 2026-05-07 14:20 | 47.27146 | 0.89167 | 36032 ft | 475 kts | 30° |
| 2026-05-07 14:21 | 47.32790 | 0.94243 | 36028 ft | 475 kts | 30° |
| 2026-05-07 14:21 | 47.38423 | 0.99343 | 36040 ft | 475 kts | 30° |
| 2026-05-07 14:22 | 47.44060 | 1.04433 | 36042 ft | 475 kts | 30° |
| 2026-05-07 14:22 | 47.49696 | 1.09524 | 36038 ft | 475 kts | 30° |
| 2026-05-07 14:23 | 47.55374 | 1.14346 | 36037 ft | 473 kts | 26° |
| 2026-05-07 14:23 | 47.61229 | 1.18793 | 36041 ft | 473 kts | 25° |
| 2026-05-07 14:24 | 47.67091 | 1.23219 | 36039 ft | 473 kts | 26° |
| 2026-05-07 14:24 | 47.72914 | 1.27761 | 36035 ft | 473 kts | 26° |
| 2026-05-07 14:25 | 47.78723 | 1.32364 | 36036 ft | 473 kts | 26° |
| 2026-05-07 14:25 | 47.84519 | 1.36966 | 36046 ft | 472 kts | 26° |
| 2026-05-07 14:26 | 47.90312 | 1.41550 | 36042 ft | 471 kts | 26° |
| 2026-05-07 14:26 | 47.96100 | 1.46135 | 36038 ft | 471 kts | 26° |
| 2026-05-07 14:27 | 48.01884 | 1.50733 | 36042 ft | 471 kts | 26° |
| 2026-05-07 14:27 | 48.07666 | 1.55341 | 36041 ft | 471 kts | 26° |
| 2026-05-07 14:28 | 48.13405 | 1.59938 | 36039 ft | 471 kts | 26° |
| 2026-05-07 14:28 | 48.19174 | 1.64567 | 36038 ft | 471 kts | 26° |
| 2026-05-07 14:29 | 48.24954 | 1.69198 | 36050 ft | 470 kts | 26° |
| 2026-05-07 14:29 | 48.30720 | 1.73837 | 36047 ft | 470 kts | 26° |
| 2026-05-07 14:30 | 48.36477 | 1.78498 | 36049 ft | 470 kts | 26° |
| 2026-05-07 14:30 | 48.42234 | 1.83162 | 36049 ft | 470 kts | 26° |
| 2026-05-07 14:31 | 48.47987 | 1.87838 | 36060 ft | 470 kts | 27° |
| 2026-05-07 14:31 | 48.53738 | 1.92515 | 36064 ft | 469 kts | 27° |
| 2026-05-07 14:32 | 48.59485 | 1.97198 | 36066 ft | 469 kts | 27° |
| 2026-05-07 14:32 | 48.65221 | 2.01900 | 36072 ft | 469 kts | 27° |
| 2026-05-07 14:33 | 48.70786 | 2.06912 | 36065 ft | 470 kts | 37° |
| 2026-05-07 14:33 | 48.75177 | 2.14209 | 36056 ft | 472 kts | 58° |
| 2026-05-07 14:34 | 48.77737 | 2.23313 | 36056 ft | 471 kts | 75° |
| 2026-05-07 14:34 | 48.79466 | 2.32901 | 36050 ft | 472 kts | 75° |
| 2026-05-07 14:35 | 48.81194 | 2.42504 | 36050 ft | 472 kts | 75° |
| 2026-05-07 14:35 | 48.82908 | 2.52122 | 36048 ft | 472 kts | 75° |
| 2026-05-07 14:36 | 48.84605 | 2.61750 | 36047 ft | 472 kts | 75° |
| 2026-05-07 14:36 | 48.86299 | 2.71392 | 36043 ft | 473 kts | 75° |
| 2026-05-07 14:37 | 48.87984 | 2.81045 | 36047 ft | 473 kts | 75° |
| 2026-05-07 14:37 | 48.90499 | 2.95536 | 36050 ft | 473 kts | 75° |
| 2026-05-07 14:38 | 48.92168 | 3.05207 | 36049 ft | 473 kts | 75° |
| 2026-05-07 14:38 | 48.93833 | 3.14881 | 36051 ft | 473 kts | 76° |
| 2026-05-07 14:39 | 48.95470 | 3.24490 | 36053 ft | 472 kts | 76° |
| 2026-05-07 14:39 | 48.97116 | 3.34173 | 36059 ft | 473 kts | 76° |
| 2026-05-07 14:40 | 48.98751 | 3.43864 | 36056 ft | 473 kts | 76° |
| 2026-05-07 14:40 | 49.00380 | 3.53570 | 36057 ft | 473 kts | 76° |
| 2026-05-07 14:41 | 49.02001 | 3.63278 | 36064 ft | 473 kts | 76° |
| 2026-05-07 14:41 | 49.03617 | 3.73000 | 36075 ft | 473 kts | 76° |
| 2026-05-07 14:42 | 49.05225 | 3.82716 | 36072 ft | 473 kts | 76° |
| 2026-05-07 14:42 | 49.06822 | 3.92435 | 36064 ft | 472 kts | 76° |
| 2026-05-07 14:43 | 49.08409 | 4.02160 | 36064 ft | 473 kts | 76° |
| 2026-05-07 14:43 | 49.09988 | 4.11891 | 36058 ft | 472 kts | 76° |
| 2026-05-07 14:44 | 49.11546 | 4.21562 | 36057 ft | 472 kts | 76° |
| 2026-05-07 14:44 | 49.13097 | 4.31295 | 36055 ft | 472 kts | 76° |
| 2026-05-07 14:45 | 49.15138 | 4.40814 | 36139 ft | 473 kts | 67° |
| 2026-05-07 14:45 | 49.16408 | 4.45440 | 36424 ft | 472 kts | 67° |
| 2026-05-07 14:45 | 49.17673 | 4.50073 | 36690 ft | 472 kts | 67° |
| 2026-05-07 14:46 | 49.18932 | 4.54712 | 36941 ft | 472 kts | 67° |
| 2026-05-07 14:46 | 49.20188 | 4.59360 | 37059 ft | 473 kts | 67° |
| 2026-05-07 14:46 | 49.22693 | 4.68657 | 37067 ft | 472 kts | 67° |
| 2026-05-07 14:47 | 49.25193 | 4.77949 | 37062 ft | 472 kts | 68° |
| 2026-05-07 14:47 | 49.27677 | 4.87252 | 37063 ft | 472 kts | 68° |
| 2026-05-07 14:48 | 49.30151 | 4.96564 | 37066 ft | 472 kts | 68° |
| 2026-05-07 14:48 | 49.32622 | 5.05878 | 37065 ft | 472 kts | 68° |
| 2026-05-07 14:49 | 49.35069 | 5.15145 | 37066 ft | 472 kts | 68° |
| 2026-05-07 14:49 | 49.37524 | 5.24476 | 37064 ft | 472 kts | 68° |
| 2026-05-07 14:50 | 49.39980 | 5.33827 | 37065 ft | 472 kts | 68° |
| 2026-05-07 14:50 | 49.42422 | 5.43185 | 37069 ft | 472 kts | 68° |
| 2026-05-07 14:51 | 49.44851 | 5.52547 | 37068 ft | 472 kts | 68° |
| 2026-05-07 14:51 | 49.47279 | 5.61920 | 37069 ft | 472 kts | 68° |
| 2026-05-07 14:52 | 49.49700 | 5.71289 | 37073 ft | 472 kts | 68° |
| 2026-05-07 14:52 | 49.52100 | 5.80680 | 37065 ft | 472 kts | 69° |
| 2026-05-07 14:53 | 49.54404 | 5.90132 | 37057 ft | 471 kts | 69° |
| 2026-05-07 14:53 | 49.56703 | 5.99584 | 37063 ft | 471 kts | 69° |
| 2026-05-07 14:54 | 49.59015 | 6.08960 | 37077 ft | 471 kts | 69° |
| 2026-05-07 14:54 | 49.61343 | 6.18404 | 37072 ft | 471 kts | 69° |
| 2026-05-07 14:55 | 49.63687 | 6.27830 | 37070 ft | 471 kts | 65° |
| 2026-05-07 14:55 | 49.66736 | 6.36750 | 37071 ft | 470 kts | 61° |
| 2026-05-07 14:56 | 49.69840 | 6.45621 | 37065 ft | 469 kts | 61° |
| 2026-05-07 14:56 | 49.72927 | 6.54501 | 37064 ft | 469 kts | 61° |
| 2026-05-07 14:57 | 49.76017 | 6.63395 | 37054 ft | 469 kts | 61° |
| 2026-05-07 14:57 | 49.79097 | 6.72287 | 37055 ft | 469 kts | 61° |
| 2026-05-07 14:58 | 49.82171 | 6.81192 | 37055 ft | 469 kts | 61° |
| 2026-05-07 14:58 | 49.85224 | 6.90111 | 37062 ft | 468 kts | 62° |
| 2026-05-07 14:59 | 49.88276 | 6.99029 | 37063 ft | 468 kts | 62° |
| 2026-05-07 14:59 | 49.91322 | 7.07951 | 37061 ft | 468 kts | 62° |
| 2026-05-07 15:00 | 49.93845 | 7.15371 | 37066 ft | 468 kts | 62° |
| 2026-05-07 15:00 | 49.96884 | 7.24309 | 37075 ft | 468 kts | 62° |
| 2026-05-07 15:01 | 50.00399 | 7.34716 | 37074 ft | 468 kts | 62° |
| 2026-05-07 15:01 | 50.02922 | 7.42227 | 37071 ft | 468 kts | 62° |
| 2026-05-07 15:02 | 50.05922 | 7.51203 | 37066 ft | 468 kts | 62° |
| 2026-05-07 15:02 | 50.08903 | 7.60148 | 37069 ft | 468 kts | 62° |
| 2026-05-07 15:03 | 50.11922 | 7.69205 | 37067 ft | 468 kts | 62° |
| 2026-05-07 15:03 | 50.14898 | 7.78156 | 37065 ft | 468 kts | 62° |
| 2026-05-07 15:04 | 50.17878 | 7.87179 | 37070 ft | 468 kts | 62° |
| 2026-05-07 15:04 | 50.20849 | 7.96220 | 37074 ft | 468 kts | 63° |
| 2026-05-07 15:05 | 50.23819 | 8.05255 | 37074 ft | 468 kts | 62° |
| 2026-05-07 15:05 | 50.26788 | 8.14301 | 37069 ft | 468 kts | 63° |
| 2026-05-07 15:06 | 50.29745 | 8.23370 | 37075 ft | 468 kts | 63° |
| 2026-05-07 15:06 | 50.32692 | 8.32454 | 37071 ft | 468 kts | 63° |
| 2026-05-07 15:07 | 50.35626 | 8.41540 | 37080 ft | 468 kts | 63° |
| 2026-05-07 15:07 | 50.38555 | 8.50635 | 37079 ft | 468 kts | 63° |
| 2026-05-07 15:08 | 50.41481 | 8.59743 | 37080 ft | 468 kts | 63° |
| 2026-05-07 15:08 | 50.44403 | 8.68857 | 37079 ft | 468 kts | 63° |
| 2026-05-07 15:09 | 50.47313 | 8.77993 | 37074 ft | 468 kts | 63° |
| 2026-05-07 15:09 | 50.50191 | 8.87065 | 37075 ft | 467 kts | 63° |
| 2026-05-07 15:10 | 50.53090 | 8.96202 | 37076 ft | 467 kts | 63° |
| 2026-05-07 15:10 | 50.55979 | 9.05368 | 37081 ft | 467 kts | 63° |
| 2026-05-07 15:11 | 50.58853 | 9.14531 | 37077 ft | 467 kts | 63° |
| 2026-05-07 15:11 | 50.61717 | 9.23709 | 37079 ft | 467 kts | 64° |
| 2026-05-07 15:12 | 50.64579 | 9.32882 | 37078 ft | 467 kts | 63° |
| 2026-05-07 15:12 | 50.67441 | 9.42077 | 37075 ft | 467 kts | 64° |
| 2026-05-07 15:13 | 50.70289 | 9.51289 | 37074 ft | 467 kts | 64° |
| 2026-05-07 15:13 | 50.72768 | 9.60733 | 37073 ft | 467 kts | 76° |
| 2026-05-07 15:14 | 50.73730 | 9.70845 | 37071 ft | 466 kts | 84° |
| 2026-05-07 15:14 | 50.74471 | 9.81013 | 37073 ft | 467 kts | 84° |
| 2026-05-07 15:15 | 50.75205 | 9.91196 | 37067 ft | 467 kts | 84° |
| 2026-05-07 15:15 | 50.75931 | 10.01389 | 37070 ft | 467 kts | 84° |
| 2026-05-07 15:16 | 50.76655 | 10.11595 | 37070 ft | 467 kts | 84° |
| 2026-05-07 15:16 | 50.77373 | 10.21800 | 37069 ft | 468 kts | 84° |
| 2026-05-07 15:17 | 50.78078 | 10.32018 | 37074 ft | 468 kts | 84° |
| 2026-05-07 15:17 | 50.78769 | 10.42240 | 37067 ft | 468 kts | 84° |
| 2026-05-07 15:18 | 50.79445 | 10.52471 | 37069 ft | 468 kts | 84° |
| 2026-05-07 15:18 | 50.80111 | 10.62712 | 37072 ft | 469 kts | 85° |
| 2026-05-07 15:19 | 50.81163 | 10.72792 | 37070 ft | 469 kts | 72° |
| 2026-05-07 15:19 | 50.83896 | 10.82194 | 37077 ft | 468 kts | 62° |
| 2026-05-07 15:20 | 50.86959 | 10.91217 | 37066 ft | 469 kts | 62° |
| 2026-05-07 15:20 | 50.90019 | 11.00331 | 37071 ft | 469 kts | 62° |
| 2026-05-07 15:21 | 50.93070 | 11.09462 | 37071 ft | 469 kts | 62° |
| 2026-05-07 15:21 | 50.96110 | 11.18611 | 37074 ft | 469 kts | 62° |
| 2026-05-07 15:22 | 50.99153 | 11.27779 | 37075 ft | 469 kts | 62° |
| 2026-05-07 15:22 | 51.02198 | 11.36933 | 37083 ft | 469 kts | 62° |
| 2026-05-07 15:23 | 51.05233 | 11.46101 | 37074 ft | 469 kts | 63° |
| 2026-05-07 15:23 | 51.08260 | 11.55297 | 37074 ft | 470 kts | 63° |
| 2026-05-07 15:24 | 51.11275 | 11.64519 | 37075 ft | 470 kts | 63° |
| 2026-05-07 15:24 | 51.14284 | 11.73756 | 37080 ft | 470 kts | 63° |
| 2026-05-07 15:25 | 51.17290 | 11.82994 | 37077 ft | 470 kts | 63° |
| 2026-05-07 15:25 | 51.20321 | 11.92211 | 37082 ft | 470 kts | 59° |
| 2026-05-07 15:26 | 51.24414 | 12.00298 | 37067 ft | 470 kts | 46° |
| 2026-05-07 15:26 | 51.28931 | 12.07842 | 37049 ft | 470 kts | 46° |
| 2026-05-07 15:27 | 51.31171 | 12.11614 | 36796 ft | 465 kts | 46° |
| 2026-05-07 15:27 | 51.33382 | 12.15347 | 36541 ft | 459 kts | 46° |
| 2026-05-07 15:27 | 51.35536 | 12.18995 | 36287 ft | 455 kts | 47° |
| 2026-05-07 15:27 | 51.37699 | 12.22666 | 36030 ft | 452 kts | 47° |
| 2026-05-07 15:28 | 51.39850 | 12.26322 | 35790 ft | 449 kts | 47° |
| 2026-05-07 15:28 | 51.41980 | 12.29950 | 35553 ft | 446 kts | 47° |
| 2026-05-07 15:28 | 51.44095 | 12.33551 | 35311 ft | 442 kts | 47° |
| 2026-05-07 15:28 | 51.46197 | 12.37128 | 35070 ft | 439 kts | 47° |
| 2026-05-07 15:29 | 51.48286 | 12.40686 | 34836 ft | 436 kts | 47° |
| 2026-05-07 15:29 | 51.50366 | 12.44231 | 34271 ft | 439 kts | 47° |
| 2026-05-07 15:29 | 51.52455 | 12.47802 | 33863 ft | 435 kts | 47° |
| 2026-05-07 15:29 | 51.54507 | 12.51316 | 33456 ft | 429 kts | 47° |
| 2026-05-07 15:30 | 51.56536 | 12.54798 | 33062 ft | 424 kts | 47° |
| 2026-05-07 15:30 | 51.58541 | 12.58240 | 32672 ft | 419 kts | 47° |
| 2026-05-07 15:30 | 51.60517 | 12.61638 | 32291 ft | 413 kts | 47° |
| 2026-05-07 15:30 | 51.62466 | 12.64996 | 31914 ft | 409 kts | 47° |
| 2026-05-07 15:31 | 51.64395 | 12.68325 | 31509 ft | 405 kts | 47° |
| 2026-05-07 15:31 | 51.66304 | 12.71624 | 31182 ft | 399 kts | 47° |
| 2026-05-07 15:31 | 51.68184 | 12.74878 | 30808 ft | 395 kts | 47° |
| 2026-05-07 15:31 | 51.70044 | 12.78092 | 30423 ft | 390 kts | 47° |
| 2026-05-07 15:32 | 51.71886 | 12.81276 | 30044 ft | 386 kts | 47° |
| 2026-05-07 15:32 | 51.73709 | 12.84436 | 29590 ft | 383 kts | 47° |
| 2026-05-07 15:32 | 51.75513 | 12.87569 | 29111 ft | 380 kts | 47° |
| 2026-05-07 15:32 | 51.77295 | 12.90694 | 28616 ft | 377 kts | 50° |
| 2026-05-07 15:33 | 51.78796 | 12.94135 | 28125 ft | 374 kts | 58° |
| 2026-05-07 15:33 | 51.80136 | 12.97726 | 27655 ft | 372 kts | 58° |
| 2026-05-07 15:33 | 51.81475 | 13.01303 | 27199 ft | 371 kts | 58° |
| 2026-05-07 15:33 | 51.82808 | 13.04858 | 26793 ft | 369 kts | 58° |
| 2026-05-07 15:34 | 51.84117 | 13.08347 | 26374 ft | 366 kts | 58° |
| 2026-05-07 15:34 | 51.85431 | 13.11857 | 25914 ft | 364 kts | 58° |
| 2026-05-07 15:34 | 51.86740 | 13.15354 | 25477 ft | 362 kts | 58° |
| 2026-05-07 15:34 | 51.88039 | 13.18824 | 25058 ft | 359 kts | 58° |
| 2026-05-07 15:35 | 51.89329 | 13.22272 | 24638 ft | 357 kts | 58° |
| 2026-05-07 15:35 | 51.90610 | 13.25707 | 24210 ft | 355 kts | 58° |
| 2026-05-07 15:35 | 51.91884 | 13.29130 | 23803 ft | 354 kts | 58° |
| 2026-05-07 15:35 | 51.93151 | 13.32546 | 23314 ft | 353 kts | 58° |
| 2026-05-07 15:36 | 51.94408 | 13.35954 | 22829 ft | 352 kts | 58° |
| 2026-05-07 15:36 | 51.95660 | 13.39360 | 22335 ft | 351 kts | 59° |
| 2026-05-07 15:36 | 51.96909 | 13.42751 | 21870 ft | 350 kts | 59° |
| 2026-05-07 15:36 | 51.98269 | 13.46019 | 21400 ft | 349 kts | 46° |
| 2026-05-07 15:37 | 52.00216 | 13.48279 | 20968 ft | 345 kts | 21° |
| 2026-05-07 15:37 | 52.02534 | 13.49047 | 20507 ft | 340 kts | 357° |
| 2026-05-07 15:37 | 52.04806 | 13.48242 | 19779 ft | 334 kts | 333° |
| 2026-05-07 15:37 | 52.06670 | 13.46064 | 19046 ft | 330 kts | 313° |
| 2026-05-07 15:38 | 52.08091 | 13.43185 | 18528 ft | 321 kts | 305° |
| 2026-05-07 15:38 | 52.09368 | 13.40395 | 18393 ft | 303 kts | 305° |
| 2026-05-07 15:38 | 52.10627 | 13.37670 | 17991 ft | 294 kts | 305° |
| 2026-05-07 15:38 | 52.11850 | 13.35035 | 17475 ft | 290 kts | 307° |
| 2026-05-07 15:39 | 52.13040 | 13.32471 | 16958 ft | 287 kts | 307° |
| 2026-05-07 15:39 | 52.14239 | 13.29881 | 16453 ft | 285 kts | 307° |
| 2026-05-07 15:39 | 52.15426 | 13.27313 | 15955 ft | 283 kts | 307° |
| 2026-05-07 15:39 | 52.16606 | 13.24757 | 15456 ft | 281 kts | 307° |
| 2026-05-07 15:40 | 52.17741 | 13.22189 | 14950 ft | 279 kts | 298° |
| 2026-05-07 15:40 | 52.18355 | 13.19229 | 14474 ft | 276 kts | 276° |
| 2026-05-07 15:40 | 52.18225 | 13.16129 | 13988 ft | 274 kts | 253° |
| 2026-05-07 15:40 | 52.17558 | 13.13233 | 13444 ft | 272 kts | 248° |
| 2026-05-07 15:41 | 52.16861 | 13.10372 | 12887 ft | 272 kts | 248° |
| 2026-05-07 15:41 | 52.16162 | 13.07496 | 12279 ft | 273 kts | 248° |
| 2026-05-07 15:41 | 52.15459 | 13.04616 | 11700 ft | 274 kts | 248° |
| 2026-05-07 15:41 | 52.14756 | 13.01742 | 11141 ft | 272 kts | 248° |
| 2026-05-07 15:42 | 52.14063 | 12.98897 | 10608 ft | 270 kts | 248° |
| 2026-05-07 15:42 | 52.13373 | 12.96058 | 10071 ft | 269 kts | 248° |
| 2026-05-07 15:42 | 52.12687 | 12.93240 | 9518 ft | 267 kts | 248° |
| 2026-05-07 15:42 | 52.12003 | 12.90438 | 8966 ft | 265 kts | 249° |
| 2026-05-07 15:43 | 52.11328 | 12.87677 | 8431 ft | 261 kts | 249° |
| 2026-05-07 15:43 | 52.10657 | 12.84950 | 7928 ft | 257 kts | 249° |
| 2026-05-07 15:43 | 52.10000 | 12.82274 | 7423 ft | 253 kts | 249° |
| 2026-05-07 15:43 | 52.09349 | 12.79628 | 6923 ft | 249 kts | 249° |
| 2026-05-07 15:44 | 52.08932 | 12.76942 | 6423 ft | 244 kts | 270° |
| 2026-05-07 15:44 | 52.09220 | 12.74283 | 5899 ft | 237 kts | 296° |
| 2026-05-07 15:44 | 52.10144 | 12.72134 | 5384 ft | 230 kts | 321° |
| 2026-05-07 15:44 | 52.11496 | 12.70831 | 4881 ft | 225 kts | 345° |
| 2026-05-07 15:45 | 52.13030 | 12.70530 | 4355 ft | 222 kts | 8° |
| 2026-05-07 15:45 | 52.14465 | 12.71238 | 4010 ft | 215 kts | 31° |
| 2026-05-07 15:45 | 52.15564 | 12.72690 | 4004 ft | 193 kts | 50° |
| 2026-05-07 15:45 | 52.16237 | 12.74503 | 3992 ft | 192 kts | 66° |
| 2026-05-07 15:46 | 52.17428 | 12.78862 | 3984 ft | 219 kts | 65° |
| 2026-05-07 15:46 | 52.18047 | 12.81131 | 3985 ft | 219 kts | 65° |
| 2026-05-07 15:46 | 52.18668 | 12.83411 | 3983 ft | 220 kts | 65° |
| 2026-05-07 15:47 | 52.19286 | 12.85682 | 3988 ft | 219 kts | 65° |
| 2026-05-07 15:47 | 52.19904 | 12.87957 | 3986 ft | 219 kts | 65° |
| 2026-05-07 15:47 | 52.20525 | 12.90238 | 3992 ft | 220 kts | 65° |
| 2026-05-07 15:47 | 52.21146 | 12.92525 | 3986 ft | 221 kts | 65° |
| 2026-05-07 15:48 | 52.21767 | 12.94816 | 3983 ft | 222 kts | 65° |
| 2026-05-07 15:48 | 52.22388 | 12.97114 | 3988 ft | 221 kts | 65° |
| 2026-05-07 15:48 | 52.23013 | 12.99407 | 3987 ft | 221 kts | 64° |
| 2026-05-07 15:48 | 52.23651 | 13.01697 | 3991 ft | 222 kts | 65° |
| 2026-05-07 15:49 | 52.24238 | 13.04014 | 3988 ft | 222 kts | 67° |
| 2026-05-07 15:49 | 52.24809 | 13.06354 | 3988 ft | 221 kts | 67° |
| 2026-05-07 15:49 | 52.25375 | 13.08693 | 3988 ft | 222 kts | 68° |
| 2026-05-07 15:49 | 52.25938 | 13.11018 | 3981 ft | 219 kts | 67° |
| 2026-05-07 15:50 | 52.26485 | 13.13283 | 4017 ft | 210 kts | 67° |
| 2026-05-07 15:50 | 52.27005 | 13.15431 | 3998 ft | 200 kts | 67° |
| 2026-05-07 15:50 | 52.27515 | 13.17543 | 3951 ft | 199 kts | 67° |
| 2026-05-07 15:50 | 52.28014 | 13.19610 | 3748 ft | 198 kts | 67° |
| 2026-05-07 15:51 | 52.28511 | 13.21670 | 3506 ft | 192 kts | 67° |
| 2026-05-07 15:51 | 52.28996 | 13.23683 | 3250 ft | 188 kts | 67° |
| 2026-05-07 15:51 | 52.29470 | 13.25656 | 2991 ft | 185 kts | 67° |
| 2026-05-07 15:51 | 52.29940 | 13.27608 | 2736 ft | 184 kts | 67° |
| 2026-05-07 15:52 | 52.30403 | 13.29538 | 2492 ft | 180 kts | 67° |
| 2026-05-07 15:52 | 52.30845 | 13.31379 | 2252 ft | 168 kts | 67° |
| 2026-05-07 15:52 | 52.31267 | 13.33140 | 2029 ft | 165 kts | 67° |
| 2026-05-07 15:52 | 52.31685 | 13.34882 | 1796 ft | 165 kts | 66° |
| 2026-05-07 15:53 | 52.32102 | 13.36622 | 1568 ft | 164 kts | 67° |
| 2026-05-07 15:53 | 52.32518 | 13.38360 | 1342 ft | 164 kts | 67° |
| 2026-05-07 15:53 | 52.32932 | 13.40094 | 1105 ft | 165 kts | 68° |
| 2026-05-07 15:53 | 52.33349 | 13.41841 | 854 ft | 165 kts | 68° |
| 2026-05-07 15:54 | 52.33627 | 13.42993 | 673 ft | 164 kts | 68° |
| 2026-05-07 15:54 | 52.34049 | 13.44701 | 529 ft | 156 kts | 69° |
| 2026-05-07 15:54 | 52.34429 | 13.46309 | 276 ft | 149 kts | 69° |
| 2026-05-07 15:54 | 52.34780 | 13.47825 | 156 ft | 132 kts | 70° |
| 2026-05-07 15:55 | 52.35047 | 13.49000 | 154 ft | 86 kts | 69° |
| 2026-05-07 15:55 | 52.35242 | 13.49832 | 154 ft | 71 kts | 68° |
| 2026-05-07 15:55 | 52.35416 | 13.50484 | 154 ft | 40 kts | 58° |
| 2026-05-07 15:55 | 52.35585 | 13.50699 | 154 ft | 25 kts | 40° |
| 2026-05-07 15:56 | 52.35722 | 13.50831 | 154 ft | 22 kts | 15° |
| 2026-05-07 15:56 | 52.35834 | 13.50774 | 154 ft | 0 kts | 340° |
| 2026-05-07 15:57 | 52.35841 | 13.50770 | 154 ft | 5 kts | 341° |
| 2026-05-07 15:57 | 52.35955 | 13.50714 | 154 ft | 23 kts | 341° |
| 2026-05-07 15:57 | 52.36107 | 13.50615 | 154 ft | 15 kts | 338° |
| 2026-05-07 15:58 | 52.36155 | 13.50658 | 155 ft | 10 kts | 67° |
| 2026-05-07 15:58 | 52.36176 | 13.50737 | 155 ft | 0 kts | 67° |